createdAt,value
2019-05-03T00:02:25.394Z,67.89
2019-05-03T00:05:04.163Z,68.91
2019-05-03T00:07:35.125Z,69.98
2019-05-03T00:10:09.725Z,67.05
2019-05-03T00:12:42.183Z,67.15
2019-05-03T00:15:22.045Z,67.80
2019-05-03T00:17:55.302Z,67.58
2019-05-03T00:20:29.302Z,68.47
2019-05-03T00:23:02.918Z,68.49
2019-05-03T00:25:35.557Z,68.94
2019-05-03T00:28:08.005Z,69.03
2019-05-03T00:30:42.583Z,68.25
2019-05-03T00:33:13.786Z,67.53
2019-05-03T00:35:52.192Z,67.80
2019-05-03T00:38:23.832Z,68.07
2019-05-03T00:40:56.303Z,68.27
2019-05-03T00:43:31.748Z,68.76
2019-05-03T00:46:03.134Z,69.05
2019-05-03T00:48:36.080Z,69.15
2019-05-03T00:51:07.827Z,69.84
2019-05-03T00:53:39.286Z,69.91
2019-05-03T00:56:12.364Z,70.20
2019-05-03T00:58:53.014Z,70.29
2019-05-03T01:01:23.487Z,70.47
2019-05-03T01:03:54.531Z,70.69
2019-05-03T01:06:26.798Z,71.08
2019-05-03T01:08:58.938Z,71.30
2019-05-03T01:11:34.044Z,71.47
2019-05-03T01:14:04.910Z,71.65
2019-05-03T01:16:37.392Z,71.71
2019-05-03T01:19:12.080Z,71.73
2019-05-03T01:21:44.178Z,71.89
2019-05-03T01:24:18.240Z,71.81
2019-05-03T01:26:50.005Z,71.71
2019-05-03T01:29:26.183Z,72.26
2019-05-03T01:31:57.752Z,73.11
2019-05-03T01:34:32.636Z,72.43
2019-05-03T01:37:03.314Z,72.89
2019-05-03T01:39:34.861Z,71.83
2019-05-03T01:42:07.900Z,71.04
2019-05-03T01:44:43.462Z,70.59
2019-05-03T01:47:21.903Z,70.45
2019-05-03T01:49:59.511Z,69.87
2019-05-03T01:52:35.339Z,69.52
2019-05-03T01:55:07.770Z,69.65
2019-05-03T01:57:41.838Z,69.66
2019-05-03T02:00:14.666Z,69.75
2019-05-03T02:02:48.217Z,69.77
2019-05-03T02:05:43.128Z,69.92
2019-05-03T02:08:15.389Z,70.00
2019-05-03T02:10:48.063Z,70.27
2019-05-03T02:13:20.644Z,70.66
2019-05-03T02:15:52.744Z,70.89
2019-05-03T02:18:23.670Z,71.16
2019-05-03T02:20:55.285Z,71.39
2019-05-03T02:23:28.160Z,71.54
2019-05-03T02:25:59.632Z,71.96
2019-05-03T02:28:32.693Z,72.26
2019-05-03T02:31:05.389Z,72.63
2019-05-03T02:33:37.145Z,73.05
2019-05-03T02:36:08.039Z,73.24
2019-05-03T02:38:42.979Z,73.58
2019-05-03T02:41:14.596Z,73.72
2019-05-03T02:43:47.681Z,74.12
2019-05-03T02:46:25.385Z,74.31
2019-05-03T02:48:58.947Z,74.60
2019-05-03T02:51:35.824Z,74.72
2019-05-03T02:54:06.451Z,74.88
2019-05-03T02:56:37.901Z,74.78
2019-05-03T02:59:11.091Z,74.64
2019-05-03T03:01:46.464Z,74.72
2019-05-03T03:04:19.485Z,74.67
2019-05-03T03:06:55.654Z,74.64
2019-05-03T03:09:28.506Z,74.47
2019-05-03T03:11:59.828Z,74.34
2019-05-03T03:14:32.789Z,74.16
2019-05-03T03:17:06.722Z,74.07
2019-05-03T03:19:39.801Z,74.20
2019-05-03T03:22:11.817Z,74.11
2019-05-03T03:24:45.831Z,74.47
2019-05-03T03:27:21.330Z,74.65
2019-05-03T03:29:56.995Z,74.65
2019-05-03T03:32:31.271Z,74.37
2019-05-03T03:35:12.741Z,73.92
2019-05-03T03:37:45.989Z,73.29
2019-05-03T03:40:18.201Z,73.11
2019-05-03T03:42:55.834Z,72.87
2019-05-03T03:45:29.461Z,72.78
2019-05-03T03:48:02.109Z,72.45
2019-05-03T03:50:35.913Z,72.22
2019-05-03T03:53:10.848Z,71.99
2019-05-03T03:55:45.827Z,71.70
2019-05-03T03:58:22.922Z,71.63
2019-05-03T04:00:55.461Z,71.22
2019-05-03T04:03:28.079Z,71.00
2019-05-03T04:05:59.258Z,70.97
2019-05-03T04:08:30.980Z,70.41
2019-05-03T04:11:03.025Z,70.06
2019-05-03T04:13:37.804Z,69.87
2019-05-03T04:16:26.104Z,69.45
2019-05-03T04:19:06.818Z,69.22
2019-05-03T04:21:48.274Z,68.84
2019-05-03T04:24:22.645Z,68.41
2019-05-03T04:27:18.426Z,68.09
2019-05-03T04:29:39.925Z,67.89
2019-05-03T04:32:15.764Z,67.18
2019-05-03T04:34:48.682Z,67.16
2019-05-03T04:37:19.513Z,66.57
2019-05-03T04:39:51.928Z,65.96
2019-05-03T04:42:25.378Z,65.83
2019-05-03T04:44:56.358Z,65.62
2019-05-03T04:47:29.992Z,65.39
2019-05-03T04:50:01.658Z,64.78
2019-05-03T04:52:36.183Z,64.27
2019-05-03T04:55:07.441Z,63.45
2019-05-03T04:57:44.950Z,62.98
2019-05-03T05:00:12.807Z,62.67
2019-05-03T05:02:46.157Z,62.28
2019-05-03T05:05:18.636Z,61.96
2019-05-03T05:08:00.731Z,61.83
2019-05-03T05:10:36.004Z,61.62
2019-05-03T05:13:06.190Z,61.40
2019-05-03T05:15:39.595Z,61.16
2019-05-03T05:18:29.267Z,60.71
2019-05-03T05:21:04.564Z,59.96
2019-05-03T05:23:35.639Z,60.54
2019-05-03T05:26:09.282Z,60.97
2019-05-03T05:28:45.089Z,60.89
2019-05-03T05:31:16.932Z,61.21
2019-05-03T05:33:48.193Z,60.70
2019-05-03T05:36:19.165Z,59.98
2019-05-03T05:38:49.966Z,59.72
2019-05-03T05:41:21.644Z,59.71
2019-05-03T05:43:52.479Z,59.88
2019-05-03T05:46:28.000Z,59.48
2019-05-03T05:49:00.050Z,58.83
2019-05-03T05:51:32.241Z,58.79
2019-05-03T05:54:02.853Z,58.19
2019-05-03T05:56:37.380Z,57.46
2019-05-03T05:59:16.831Z,57.08
2019-05-03T06:02:00.048Z,56.70
2019-05-03T06:04:31.299Z,56.19
2019-05-03T06:07:09.903Z,56.27
2019-05-03T06:09:46.371Z,55.24
2019-05-03T06:12:25.500Z,54.33
2019-05-03T06:15:00.335Z,54.40
2019-05-03T06:17:48.365Z,53.08
2019-05-03T06:20:25.866Z,52.68
2019-05-03T06:23:05.221Z,52.02
2019-05-03T06:25:37.954Z,51.80
2019-05-03T06:28:18.257Z,51.63
2019-05-03T06:30:56.431Z,50.77
2019-05-03T06:33:27.776Z,50.74
2019-05-03T06:35:59.817Z,50.25
2019-05-03T06:38:34.426Z,49.56
2019-05-03T06:41:05.838Z,50.13
2019-05-03T06:43:44.065Z,50.63
2019-05-03T06:46:12.294Z,50.25
2019-05-03T06:48:46.620Z,49.89
2019-05-03T06:51:20.287Z,50.02
2019-05-03T06:53:51.458Z,49.31
2019-05-03T06:56:29.098Z,49.12
2019-05-03T06:58:59.067Z,49.41
2019-05-03T07:01:34.498Z,49.01
2019-05-03T07:04:15.127Z,48.63
2019-05-03T07:07:05.264Z,47.96
2019-05-03T07:09:44.707Z,46.64
2019-05-03T07:12:16.859Z,46.45
2019-05-03T07:14:50.501Z,46.32
2019-05-03T07:17:24.826Z,46.39
2019-05-03T07:19:56.329Z,46.59
2019-05-03T07:22:27.676Z,46.94
2019-05-03T07:25:00.048Z,46.26
2019-05-03T07:27:31.499Z,44.55
2019-05-03T07:30:04.930Z,44.96
2019-05-03T07:32:35.824Z,44.78
2019-05-03T07:35:09.156Z,44.09
2019-05-03T07:37:40.981Z,42.92
2019-05-03T07:40:14.925Z,42.19
2019-05-03T07:42:46.953Z,40.81
2019-05-03T07:45:19.734Z,40.41
2019-05-03T07:47:52.896Z,40.46
2019-05-03T07:50:26.053Z,39.74
2019-05-03T07:52:57.172Z,40.21
2019-05-03T07:55:30.963Z,39.47
2019-05-03T07:58:07.479Z,37.45
2019-05-03T08:00:39.749Z,38.00
2019-05-03T08:03:12.222Z,38.25
2019-05-03T08:05:45.430Z,38.84
2019-05-03T08:08:18.241Z,38.49
2019-05-03T08:10:49.771Z,38.93
2019-05-03T08:13:21.738Z,39.03
2019-05-03T08:15:52.384Z,39.65
2019-05-03T08:18:25.939Z,40.32
2019-05-03T08:20:56.615Z,38.43
2019-05-03T08:23:30.534Z,37.87
2019-05-03T08:26:02.996Z,36.84
2019-05-03T08:28:35.066Z,35.31
2019-05-03T08:31:24.053Z,35.47
2019-05-03T08:34:15.144Z,35.72
2019-05-03T08:36:56.812Z,36.53
2019-05-03T08:39:28.015Z,37.17
2019-05-03T08:42:04.804Z,36.61
2019-05-03T08:44:37.205Z,38.14
2019-05-03T08:47:09.065Z,39.08
2019-05-03T08:49:44.878Z,39.25
2019-05-03T08:52:17.142Z,37.97
2019-05-03T08:54:50.257Z,35.71
2019-05-03T08:57:22.499Z,35.70
2019-05-03T08:59:55.076Z,36.43
2019-05-03T09:02:27.181Z,37.66
2019-05-03T09:05:00.569Z,37.29
2019-05-03T09:07:35.507Z,35.19
2019-05-03T09:10:12.617Z,34.61
2019-05-03T09:13:03.449Z,33.06
2019-05-03T09:15:36.618Z,34.20
2019-05-03T09:18:07.762Z,35.26
2019-05-03T09:20:39.443Z,35.85
2019-05-03T09:23:14.897Z,35.98
2019-05-03T09:25:48.189Z,36.85
2019-05-03T09:28:21.164Z,37.77
2019-05-03T09:30:52.664Z,36.68
2019-05-03T09:33:24.971Z,34.18
2019-05-03T09:35:56.923Z,32.35
2019-05-03T09:38:31.367Z,32.56
2019-05-03T09:41:11.034Z,31.76
2019-05-03T09:43:41.681Z,30.01
2019-05-03T09:46:14.699Z,28.86
2019-05-03T09:48:46.415Z,28.61
2019-05-03T09:51:20.754Z,27.92
2019-05-03T09:53:56.090Z,28.17
2019-05-03T09:56:55.289Z,26.73
2019-05-03T09:59:21.179Z,27.20
2019-05-03T10:01:58.411Z,27.07
2019-05-03T10:04:30.342Z,28.64
2019-05-03T10:07:02.001Z,27.54
2019-05-03T10:09:35.359Z,26.78
2019-05-03T10:12:16.144Z,28.84
2019-05-03T10:14:49.237Z,29.30
2019-05-03T10:17:28.625Z,28.93
2019-05-03T10:20:05.089Z,29.53
2019-05-03T10:22:37.199Z,28.31
2019-05-03T10:25:08.569Z,26.84
2019-05-03T10:27:52.426Z,26.84
2019-05-03T10:30:28.888Z,26.56
2019-05-03T10:33:06.733Z,25.47
2019-05-03T10:57:05.310Z,38.67
2019-05-03T10:59:36.421Z,37.83
2019-05-03T11:02:17.967Z,35.98
2019-05-03T11:08:10.501Z,27.81
2019-05-03T11:10:41.186Z,27.11
2019-05-03T11:13:16.140Z,28.94
2019-05-03T11:15:47.015Z,29.79
2019-05-03T11:18:19.590Z,32.64
2019-05-03T11:20:50.521Z,33.59
2019-05-03T11:23:25.080Z,36.22
2019-05-03T11:25:56.336Z,38.61
2019-05-03T11:28:27.230Z,38.59
2019-05-03T11:31:02.471Z,31.33
2019-05-03T11:33:37.298Z,30.42
2019-05-03T11:36:12.534Z,33.08
2019-05-03T11:38:45.575Z,32.68
2019-05-03T11:41:29.531Z,31.45
2019-05-03T11:43:49.225Z,32.57
2019-05-03T11:46:20.172Z,33.87
2019-05-03T11:48:51.931Z,39.61
2019-05-03T11:51:24.514Z,43.27
2019-05-03T11:53:54.951Z,41.19
2019-05-03T11:56:26.606Z,39.13
2019-05-03T11:58:57.762Z,32.06
2019-05-03T12:01:30.206Z,27.06
2019-05-03T12:04:04.836Z,23.87
2019-05-03T12:06:36.789Z,23.30
2019-05-03T12:09:08.093Z,23.20
2019-05-03T12:11:39.967Z,26.29
2019-05-03T12:14:11.765Z,28.54
2019-05-03T12:19:24.713Z,32.92
2019-05-03T12:21:54.927Z,33.25
2019-05-03T12:24:27.103Z,32.23
2019-05-03T12:26:58.519Z,31.55
2019-05-03T12:29:29.460Z,25.88
2019-05-03T12:32:00.501Z,22.69
2019-05-03T12:34:31.300Z,26.88
2019-05-03T12:37:05.115Z,29.16
2019-05-03T12:39:36.070Z,31.13
2019-05-03T12:42:07.023Z,31.29
2019-05-03T12:44:38.914Z,32.16
2019-05-03T12:47:09.891Z,31.30
2019-05-03T12:49:40.850Z,25.49
2019-05-03T12:52:12.739Z,24.20
2019-05-03T12:54:46.101Z,26.35
2019-05-03T12:57:16.749Z,28.85
2019-05-03T12:59:49.413Z,28.71
2019-05-03T13:02:28.239Z,29.42
2019-05-03T13:04:59.099Z,24.97
2019-05-03T13:07:37.717Z,21.37
2019-05-03T13:10:10.236Z,22.30
2019-05-03T13:12:52.755Z,23.82
2019-05-03T13:15:15.732Z,24.81
2019-05-03T13:17:46.866Z,26.04
2019-05-03T13:20:18.114Z,23.68
2019-05-03T13:22:49.546Z,21.42
2019-05-03T13:25:20.587Z,21.60
2019-05-03T13:27:54.802Z,18.90
2019-05-03T13:30:29.627Z,16.65
2019-05-03T13:33:02.020Z,15.26
2019-05-03T13:35:35.014Z,15.03
2019-05-03T13:38:06.578Z,14.98
2019-05-03T13:40:37.367Z,15.01
2019-05-03T13:43:09.434Z,16.86
2019-05-03T13:45:40.180Z,15.38
2019-05-03T13:48:12.340Z,15.27
2019-05-03T13:50:44.638Z,16.17
2019-05-03T13:53:16.932Z,16.82
2019-05-03T13:55:49.090Z,16.60
2019-05-03T13:58:20.092Z,17.47
2019-05-03T14:00:51.221Z,18.31
2019-05-03T14:03:22.488Z,18.85
2019-05-03T14:05:55.159Z,18.07
2019-05-03T14:08:25.659Z,18.34
2019-05-03T14:10:56.530Z,17.57
2019-05-03T14:13:27.557Z,18.06
2019-05-03T14:15:58.389Z,16.69
2019-05-03T14:18:29.453Z,17.03
2019-05-03T14:21:02.136Z,15.51
2019-05-03T14:23:34.793Z,16.34
2019-05-03T14:26:05.928Z,18.89
2019-05-03T14:28:36.680Z,20.42
2019-05-03T14:31:10.275Z,17.47
2019-05-03T14:33:41.206Z,17.52
2019-05-03T14:36:15.917Z,18.91
2019-05-03T14:38:47.061Z,20.28
2019-05-03T14:41:17.544Z,20.92
2019-05-03T14:43:48.642Z,22.89
2019-05-03T14:46:30.026Z,24.35
2019-05-03T14:48:54.861Z,25.78
2019-05-03T14:51:25.466Z,25.88
2019-05-03T14:53:57.167Z,23.56
2019-05-03T14:56:29.876Z,21.50
2019-05-03T15:06:35.278Z,22.45
2019-05-03T15:09:07.880Z,23.06
2019-05-03T15:11:38.433Z,25.50
2019-05-03T15:14:09.429Z,27.25
2019-05-03T15:16:40.471Z,29.40
2019-05-03T15:19:11.442Z,31.23
2019-05-03T15:21:42.904Z,31.81
2019-05-03T15:24:14.536Z,32.83
2019-05-03T15:26:45.693Z,34.12
2019-05-03T15:29:16.766Z,35.17
2019-05-03T15:31:48.070Z,34.90
2019-05-03T15:34:18.629Z,34.61
2019-05-03T15:36:49.547Z,34.42
2019-05-03T15:39:20.575Z,34.83
2019-05-03T15:41:54.284Z,34.93
2019-05-03T15:44:30.985Z,34.83
2019-05-03T15:47:09.870Z,34.32
2019-05-03T15:49:38.866Z,32.78
2019-05-03T15:52:10.194Z,32.47
2019-05-03T15:54:40.770Z,32.16
2019-05-03T15:57:11.276Z,30.37
2019-05-03T15:59:44.518Z,29.70
2019-05-03T16:02:15.603Z,28.88
2019-05-03T16:04:46.888Z,29.66
2019-05-03T16:07:18.057Z,30.20
2019-05-03T16:09:49.230Z,30.85
2019-05-03T16:12:20.176Z,32.35
2019-05-03T16:14:51.113Z,35.43
2019-05-03T16:17:24.513Z,37.05
2019-05-03T16:19:58.403Z,37.70
2019-05-03T16:22:28.900Z,38.49
2019-05-03T16:25:01.104Z,39.18
2019-05-03T16:27:34.759Z,39.59
2019-05-03T16:33:51.927Z,41.76
2019-05-03T16:36:23.801Z,42.61
2019-05-03T16:38:57.487Z,43.49
2019-05-03T16:41:28.475Z,44.10
2019-05-03T16:44:03.099Z,44.49
2019-05-03T16:46:34.351Z,44.62
2019-05-03T16:49:06.447Z,44.46
2019-05-03T16:51:37.814Z,44.67
2019-05-03T16:54:12.231Z,44.59
2019-05-03T16:56:44.440Z,44.63
2019-05-03T16:59:17.244Z,44.57
2019-05-03T17:01:46.080Z,44.85
2019-05-03T17:04:34.872Z,45.31
2019-05-03T17:07:06.731Z,45.69
2019-05-03T17:09:39.886Z,45.92
2019-05-03T17:23:25.791Z,47.29
2019-05-03T17:25:58.255Z,47.59
2019-05-03T17:28:29.706Z,47.96
2019-05-03T17:31:00.329Z,48.33
2019-05-03T17:33:31.069Z,48.77
2019-05-03T17:36:01.983Z,49.10
2019-05-03T17:38:34.994Z,49.43
2019-05-03T17:41:06.871Z,49.86
2019-05-03T17:43:39.275Z,50.24
2019-05-03T17:46:11.964Z,50.77
2019-05-03T17:48:42.873Z,51.17
2019-05-03T17:51:35.148Z,51.80
2019-05-03T17:54:10.925Z,51.80
2019-05-03T17:56:44.523Z,52.24
2019-05-03T17:59:16.997Z,52.28
2019-05-03T18:02:06.906Z,52.53
2019-05-03T18:04:39.648Z,52.76
2019-05-03T18:07:15.114Z,53.00
2019-05-03T18:09:47.980Z,53.21
2019-05-03T18:12:18.920Z,53.23
2019-05-03T18:14:50.862Z,53.42
2019-05-03T18:17:22.329Z,53.69
2019-05-03T18:19:55.198Z,53.95
2019-05-03T18:22:26.978Z,54.20
2019-05-03T18:24:57.807Z,54.38
2019-05-03T18:27:29.558Z,54.51
2019-05-03T18:30:00.194Z,54.66
2019-05-03T18:32:34.444Z,54.82
2019-05-03T18:35:06.158Z,55.00
2019-05-03T18:37:37.410Z,55.17
2019-05-03T18:40:07.970Z,55.14
2019-05-03T18:42:44.815Z,55.46
2019-05-03T18:45:20.867Z,55.69
2019-05-03T18:47:51.801Z,55.74
2019-05-03T18:50:25.164Z,55.97
2019-05-03T18:52:56.338Z,56.19
2019-05-03T18:55:28.003Z,56.15
2019-05-03T18:58:00.064Z,56.21
2019-05-03T19:00:31.813Z,56.25
2019-05-03T19:03:02.956Z,56.20
2019-05-03T19:05:35.668Z,56.26
2019-05-03T19:08:15.310Z,56.25
2019-05-03T19:10:47.781Z,56.29
2019-05-03T19:13:26.678Z,56.47
2019-05-03T19:16:00.770Z,56.79
2019-05-03T19:18:35.119Z,56.99
2019-05-03T19:21:06.040Z,57.26
2019-05-03T19:23:36.462Z,57.40
2019-05-03T19:26:09.240Z,57.31
2019-05-03T19:28:40.081Z,57.37
2019-05-03T19:31:13.072Z,57.31
2019-05-03T19:33:45.660Z,57.47
2019-05-03T19:36:16.818Z,57.50
2019-05-03T19:38:48.236Z,57.65
2019-05-03T19:41:19.475Z,57.73
2019-05-03T19:43:50.414Z,57.66
2019-05-03T19:46:21.858Z,57.52
2019-05-03T19:48:54.589Z,57.49
2019-05-03T19:51:26.476Z,57.53
2019-05-03T19:53:58.599Z,57.24
2019-05-03T19:56:31.239Z,57.20
2019-05-03T19:59:04.750Z,57.19
2019-05-03T20:01:37.116Z,56.70
2019-05-03T20:04:27.908Z,56.98
2019-05-03T20:07:05.329Z,57.39
2019-05-03T20:09:36.747Z,57.87
2019-05-03T20:12:08.506Z,57.93
2019-05-03T20:14:40.392Z,58.50
2019-05-03T20:17:14.688Z,59.04
2019-05-03T20:19:45.828Z,59.38
2019-05-03T20:22:17.577Z,59.90
2019-05-03T20:24:48.723Z,60.61
2019-05-03T20:27:19.256Z,61.09
2019-05-03T20:29:50.187Z,61.38
2019-05-03T20:32:25.093Z,61.39
2019-05-03T20:34:55.792Z,61.56
2019-05-03T20:37:28.225Z,61.82
2019-05-03T20:40:05.277Z,61.67
2019-05-03T20:42:54.757Z,61.55
2019-05-03T20:45:36.075Z,61.71
2019-05-03T20:48:08.421Z,61.58
2019-05-03T20:50:41.406Z,61.90
2019-05-03T20:53:16.235Z,62.07
2019-05-03T20:55:47.592Z,62.15
2019-05-03T20:58:18.321Z,62.31
2019-05-03T21:00:50.996Z,62.17
2019-05-03T21:03:24.820Z,62.31
2019-05-03T21:05:58.507Z,62.16
2019-05-03T21:08:30.962Z,62.13
2019-05-03T21:11:05.423Z,62.18
2019-05-03T21:13:41.985Z,61.75
2019-05-03T21:16:15.261Z,61.71
2019-05-03T21:18:51.719Z,61.57
2019-05-03T21:21:28.262Z,61.14
2019-05-03T21:24:01.225Z,61.08
2019-05-03T21:26:32.084Z,60.34
2019-05-03T21:29:04.752Z,59.95
2019-05-03T21:31:35.592Z,59.57
2019-05-03T21:34:07.364Z,59.75
2019-05-03T21:36:39.134Z,59.35
2019-05-03T21:39:10.378Z,59.40
2019-05-03T21:41:41.108Z,59.63
2019-05-03T21:44:15.838Z,59.65
2019-05-03T21:46:48.314Z,59.69
2019-05-03T21:49:20.782Z,59.84
2019-05-03T21:51:53.639Z,59.70
2019-05-03T21:54:24.658Z,59.86
2019-05-03T21:56:57.976Z,59.85
2019-05-03T21:59:28.021Z,59.60
2019-05-03T22:02:00.997Z,59.73
2019-05-03T22:04:35.175Z,59.72
2019-05-03T22:07:06.967Z,59.89
2019-05-03T22:09:38.623Z,60.03
2019-05-03T22:12:10.593Z,60.07
2019-05-03T22:14:43.114Z,60.15
2019-05-03T22:17:35.799Z,60.34
2019-05-03T22:20:12.888Z,60.28
2019-05-03T22:22:45.332Z,60.49
2019-05-03T22:25:18.718Z,60.81
2019-05-03T22:27:50.982Z,60.82
2019-05-03T22:30:21.852Z,60.67
2019-05-03T22:32:54.777Z,60.68
2019-05-03T22:35:25.162Z,60.68
2019-05-03T22:37:56.149Z,60.49
2019-05-03T22:40:28.370Z,60.71
2019-05-03T22:43:01.646Z,60.63
2019-05-03T22:45:32.087Z,60.63
2019-05-03T22:48:05.267Z,60.85
2019-05-03T22:50:36.753Z,61.01
2019-05-03T22:53:07.583Z,61.01
2019-05-03T22:55:39.835Z,61.03
2019-05-03T22:58:10.782Z,61.02
2019-05-03T23:00:42.015Z,61.14
2019-05-03T23:03:14.500Z,61.21
2019-05-03T23:05:46.607Z,61.25
2019-05-03T23:08:17.382Z,61.26
2019-05-03T23:10:48.428Z,61.30
2019-05-03T23:13:20.181Z,61.27
2019-05-03T23:15:50.806Z,60.98
2019-05-03T23:18:21.964Z,61.01
2019-05-03T23:20:55.293Z,60.70
2019-05-03T23:23:45.554Z,60.68
2019-05-03T23:26:17.720Z,60.86
2019-05-03T23:28:50.281Z,61.12
2019-05-03T23:31:20.905Z,61.37
2019-05-03T23:33:54.466Z,61.47
2019-05-03T23:36:33.139Z,61.54
2019-05-03T23:38:59.514Z,62.03
2019-05-03T23:41:30.505Z,62.53
2019-05-03T23:44:04.759Z,63.10
2019-05-03T23:46:37.180Z,63.73
2019-05-03T23:49:08.148Z,64.17
2019-05-03T23:51:54.954Z,64.50
2019-05-03T23:54:25.113Z,64.95
2019-05-03T23:56:56.261Z,65.15
2019-05-03T23:59:27.189Z,65.54
